KDEC/DEC METAR and TAF weather

Enter ICAO airport designator
Station Type Date Time Source
KDEC METAR 2022/11/30 08:54 UTC NOAA

KDEC 300854Z AUTO 29015G22KT 10SM CLR M03/M08 A2997 RMK AO2 PK WND 30033/0815 SLP153 T10281078 53046


Station Type Date Time Source
KDEC Decoded METAR 2022/11/30 08:54 UTC NOAA

DECATUR AIRPORT, IL, United States (KDEC) 39-50N 88-52W 207M
Nov 30, 2022 - 03:54 AM EST / 2022.11.30 0854 UTC
Wind: from the WNW (290 degrees) at 17 MPH (15 KT) gusting to 25 MPH (22 KT):0
Visibility: 10 mile(s):0
Sky conditions: clear
Temperature: 27.0 F (-2.8 C)
Windchill: 14 F (-10 C):1
Dew Point: 18.0 F (-7.8 C)
Relative Humidity: 68%
Pressure (altimeter): 29.97 in. Hg (1014 hPa)
Pressure tendency: 0.14 inches (4.6 hPa) higher than three hours ago
ob: KDEC 300854Z AUTO 29015G22KT 10SM CLR M03/M08 A2997 RMK AO2 PK WND 30033/0815 SLP153 T10281078 53046
cycle: 9

Station Type Date Time Source
KDEC TAF 2022/11/30 06:24 UTC NOAA

TAF KDEC 300522Z 3006/0106 29019G29KT P6SM BKN018 OVC025
FM300800 29016G28KT P6SM FEW120 SCT180
FM301500 27014G23KT P6SM FEW250
FM010000 28009KT P6SM SKC

Example: see airport list